createdAt,value
2022-08-09T00:01:49.413Z,5.80
2022-08-09T00:04:34.572Z,5.28
2022-08-09T00:07:07.790Z,5.50
2022-08-09T00:09:39.457Z,6.18
2022-08-09T00:12:08.423Z,6.32
2022-08-09T00:14:38.557Z,6.32
2022-08-09T00:17:08.383Z,6.50
2022-08-09T00:19:56.542Z,6.30
2022-08-09T00:22:35.061Z,5.63
2022-08-09T00:25:10.072Z,6.07
2022-08-09T00:27:43.012Z,6.28
2022-08-09T00:30:24.350Z,6.10
2022-08-09T00:32:54.476Z,5.57
2022-08-09T00:35:24.036Z,7.57
2022-08-09T00:37:52.250Z,6.47
2022-08-09T00:40:31.032Z,6.25
2022-08-09T00:44:25.463Z,6.57
2022-08-09T00:45:54.108Z,5.45
2022-08-09T00:48:22.471Z,6.05
2022-08-09T00:50:52.164Z,6.43
2022-08-09T00:53:24.268Z,6.97
2022-08-09T00:56:05.451Z,5.80
2022-08-09T00:58:37.916Z,6.40
2022-08-09T01:01:32.517Z,7.15
2022-08-09T01:05:02.726Z,6.40
2022-08-09T01:08:01.143Z,6.40
2022-08-09T01:10:52.318Z,6.63
2022-08-09T01:14:00.255Z,6.70
2022-08-09T01:16:39.513Z,6.28
2022-08-09T01:19:16.935Z,6.30
2022-08-09T01:22:27.405Z,6.90
2022-08-09T01:25:41.574Z,6.10
2022-08-09T01:28:11.478Z,5.78
2022-08-09T01:30:52.673Z,6.15
2022-08-09T01:33:25.482Z,5.93
2022-08-09T01:36:01.555Z,5.97
2022-08-09T01:38:35.087Z,6.00
2022-08-09T01:41:26.055Z,6.20
2022-08-09T01:44:00.663Z,6.07
2022-08-09T01:46:36.226Z,5.65
2022-08-09T01:49:12.672Z,5.32
2022-08-09T01:51:55.509Z,5.38
2022-08-09T01:54:32.561Z,5.45
2022-08-09T01:57:11.886Z,6.28
2022-08-09T01:59:51.819Z,6.15
2022-08-09T02:02:30.881Z,6.10
2022-08-09T02:05:15.396Z,5.50
2022-08-09T02:08:40.657Z,5.53
2022-08-09T02:10:50.731Z,5.72
2022-08-09T02:13:25.883Z,5.43
2022-08-09T02:16:07.501Z,6.10
2022-08-09T02:18:38.182Z,5.30
2022-08-09T02:21:17.093Z,5.80
2022-08-09T02:23:54.597Z,5.75
2022-08-09T02:26:27.421Z,5.43
2022-08-09T02:29:05.065Z,6.30
2022-08-09T02:31:39.266Z,5.35
2022-08-09T02:34:40.993Z,5.35
2022-08-09T02:37:24.849Z,5.10
2022-08-09T02:40:05.268Z,5.53
2022-08-09T02:42:42.140Z,6.25
2022-08-09T02:45:37.866Z,5.55
2022-08-09T02:48:30.554Z,5.35
2022-08-09T02:51:01.684Z,5.25
2022-08-09T02:53:52.805Z,5.60
2022-08-09T02:56:22.989Z,5.05
2022-08-09T02:58:52.811Z,5.78
2022-08-09T03:01:29.507Z,5.38
2022-08-09T03:04:19.245Z,5.18
2022-08-09T03:06:49.312Z,5.53
2022-08-09T03:09:20.533Z,5.57
2022-08-09T03:12:06.716Z,4.88
2022-08-09T03:14:40.768Z,5.55
2022-08-09T03:17:20.330Z,5.53
2022-08-09T03:20:03.158Z,5.15
2022-08-09T03:22:41.297Z,5.55
2022-08-09T03:25:26.159Z,5.13
2022-08-09T03:28:04.270Z,5.20
2022-08-09T03:30:39.557Z,4.97
2022-08-09T03:33:17.548Z,5.30
2022-08-09T03:36:16.025Z,5.43
2022-08-09T03:38:43.559Z,5.22
2022-08-09T03:41:16.059Z,5.28
2022-08-09T03:44:02.943Z,5.22
2022-08-09T03:46:35.544Z,5.47
2022-08-09T03:49:08.464Z,4.93
2022-08-09T03:51:58.570Z,5.55
2022-08-09T03:54:32.381Z,5.32
2022-08-09T03:57:04.519Z,5.38
2022-08-09T03:59:53.278Z,4.93
2022-08-09T04:02:28.319Z,4.50
2022-08-09T04:07:47.709Z,4.90
2022-08-09T04:10:28.851Z,4.53
2022-08-09T04:13:11.417Z,4.53
2022-08-09T04:16:18.814Z,4.50
2022-08-09T04:18:28.302Z,5.07
2022-08-09T04:20:56.465Z,5.15
2022-08-09T04:23:25.875Z,4.75
2022-08-09T04:25:55.515Z,4.97
2022-08-09T04:28:31.381Z,5.32
2022-08-09T04:31:08.132Z,4.55
2022-08-09T04:33:47.557Z,4.57
2022-08-09T04:36:24.275Z,4.80
2022-08-09T04:38:54.012Z,5.03
2022-08-09T04:41:24.450Z,4.50
2022-08-09T04:44:11.013Z,4.60
2022-08-09T04:46:59.648Z,4.35
2022-08-09T04:49:53.577Z,4.65
2022-08-09T04:52:28.265Z,4.78
2022-08-09T04:54:59.420Z,4.80
2022-08-09T04:57:58.352Z,4.70
2022-08-09T05:00:17.271Z,4.63
2022-08-09T05:02:52.690Z,4.70
2022-08-09T05:05:32.151Z,4.60
2022-08-09T05:08:13.971Z,5.20
2022-08-09T05:10:43.274Z,5.40
2022-08-09T05:13:13.168Z,4.57
2022-08-09T05:15:48.058Z,4.57
2022-08-09T05:18:38.909Z,4.90
2022-08-09T05:21:10.110Z,5.18
2022-08-09T05:24:01.481Z,4.80
2022-08-09T05:26:37.316Z,5.18
2022-08-09T05:29:24.254Z,4.82
2022-08-09T05:31:56.101Z,5.05
2022-08-09T05:34:30.237Z,5.03
2022-08-09T05:37:06.829Z,5.00
2022-08-09T05:39:43.911Z,4.97
2022-08-09T05:42:17.677Z,4.78
2022-08-09T05:44:54.803Z,4.57
2022-08-09T05:47:24.759Z,4.90
2022-08-09T05:50:29.933Z,5.35
2022-08-09T05:52:44.292Z,4.93
2022-08-09T05:55:20.649Z,4.95
2022-08-09T05:57:56.750Z,4.18
2022-08-09T06:00:32.738Z,4.18
2022-08-09T06:03:03.920Z,4.28
2022-08-09T06:05:50.347Z,4.65
2022-08-09T06:08:26.178Z,4.07
2022-08-09T06:10:55.582Z,4.13
2022-08-09T06:13:25.252Z,3.80
2022-08-09T06:15:55.306Z,3.92
2022-08-09T06:18:25.237Z,4.07
2022-08-09T06:20:58.586Z,4.00
2022-08-09T06:23:57.135Z,4.47
2022-08-09T06:26:20.225Z,3.65
2022-08-09T06:29:00.035Z,4.22
2022-08-09T06:31:40.328Z,3.92
2022-08-09T06:34:20.256Z,3.78
2022-08-09T06:36:58.983Z,4.90
2022-08-09T06:39:48.499Z,3.97
2022-08-09T06:42:24.527Z,3.30
2022-08-09T06:45:00.182Z,3.88
2022-08-09T06:47:39.864Z,3.60
2022-08-09T06:50:13.421Z,3.88
2022-08-09T06:55:23.399Z,3.47
2022-08-09T06:58:02.643Z,3.55
2022-08-09T07:00:50.318Z,3.63
2022-08-09T07:03:28.259Z,3.78
2022-08-09T07:06:03.642Z,3.78
2022-08-09T07:08:34.786Z,3.83
2022-08-09T07:11:06.520Z,3.55
2022-08-09T07:14:03.474Z,3.35
2022-08-09T07:16:40.410Z,3.58
2022-08-09T07:19:15.742Z,3.65
2022-08-09T07:21:50.188Z,3.58
2022-08-09T07:24:31.808Z,3.55
2022-08-09T07:27:10.802Z,3.55
2022-08-09T07:29:58.693Z,3.90
2022-08-09T07:32:32.590Z,3.47
2022-08-09T07:35:10.090Z,3.72
2022-08-09T07:37:42.997Z,3.28
2022-08-09T07:40:17.711Z,3.40
2022-08-09T07:42:55.442Z,3.83
2022-08-09T07:45:37.366Z,3.35
2022-08-09T07:48:07.990Z,3.22
2022-08-09T07:51:09.395Z,3.50
2022-08-09T07:54:05.928Z,4.15
2022-08-09T07:56:30.901Z,3.30
2022-08-09T07:58:59.916Z,3.58
2022-08-09T08:01:33.211Z,3.25
2022-08-09T08:04:03.699Z,3.60
2022-08-09T08:06:32.766Z,3.65
2022-08-09T08:09:07.669Z,3.42
2022-08-09T08:12:11.531Z,3.85
2022-08-09T08:14:34.758Z,3.50
2022-08-09T08:17:07.617Z,3.50
2022-08-09T08:19:38.218Z,3.30
2022-08-09T08:22:06.423Z,4.00
2022-08-09T08:24:40.783Z,3.97
2022-08-09T08:27:17.244Z,3.80
2022-08-09T08:29:48.449Z,3.92
2022-08-09T08:32:24.321Z,3.80
2022-08-09T08:34:59.273Z,4.28
2022-08-09T08:37:41.944Z,4.03
2022-08-09T08:40:16.947Z,3.92
2022-08-09T08:42:47.613Z,4.25
2022-08-09T08:45:37.034Z,3.80
2022-08-09T08:48:06.736Z,4.32
2022-08-09T08:50:39.072Z,4.07
2022-08-09T08:53:12.015Z,3.88
2022-08-09T08:55:44.493Z,4.45
2022-08-09T08:58:13.654Z,4.13
2022-08-09T09:00:42.911Z,4.18
2022-08-09T09:03:22.859Z,4.18
2022-08-09T09:06:04.789Z,4.10
2022-08-09T09:08:44.923Z,4.28
2022-08-09T09:11:21.783Z,4.63
2022-08-09T09:13:56.768Z,3.92
2022-08-09T09:16:34.918Z,4.80
2022-08-09T09:22:07.987Z,4.65
2022-08-09T09:24:50.953Z,3.78
2022-08-09T09:28:05.477Z,3.80
2022-08-09T09:30:38.688Z,4.55
2022-08-09T09:33:16.631Z,4.43
2022-08-09T09:36:02.653Z,4.43
2022-08-09T09:38:57.217Z,3.97
2022-08-09T09:41:33.324Z,4.32
2022-08-09T09:44:40.677Z,4.18
2022-08-09T09:47:12.224Z,4.20
2022-08-09T09:50:06.918Z,4.25
2022-08-09T09:52:54.580Z,4.68
2022-08-09T09:55:31.428Z,4.50
2022-08-09T09:58:15.939Z,4.40
2022-08-09T10:00:55.504Z,4.47
2022-08-09T10:03:42.724Z,4.20
2022-08-09T10:06:12.738Z,4.95
2022-08-09T10:08:55.075Z,4.53
2022-08-09T10:11:59.525Z,4.22
2022-08-09T10:14:30.450Z,4.55
2022-08-09T10:17:40.648Z,4.65
2022-08-09T10:20:02.041Z,4.32
2022-08-09T10:22:39.378Z,3.70
2022-08-09T10:25:11.718Z,4.35
2022-08-09T10:27:56.824Z,4.32
2022-08-09T10:32:13.695Z,4.40
2022-08-09T10:33:29.758Z,4.30
2022-08-09T10:36:09.508Z,4.20
2022-08-09T10:38:56.403Z,4.50
2022-08-09T10:41:25.937Z,4.47
2022-08-09T10:44:01.177Z,4.50
2022-08-09T10:46:52.316Z,5.05
2022-08-09T10:49:51.281Z,4.43
2022-08-09T10:52:33.694Z,4.00
2022-08-09T10:55:25.547Z,5.32
2022-08-09T10:57:59.888Z,4.30
2022-08-09T11:00:35.719Z,4.45
2022-08-09T11:03:51.411Z,4.90
2022-08-09T11:06:18.525Z,4.72
2022-08-09T11:08:51.802Z,4.40
2022-08-09T11:11:23.435Z,4.28
2022-08-09T11:14:29.023Z,4.60
2022-08-09T11:17:19.265Z,4.95
2022-08-09T11:20:22.044Z,4.68
2022-08-09T11:25:44.817Z,5.15
2022-08-09T11:28:34.622Z,5.00
2022-08-09T11:31:33.772Z,4.30
2022-08-09T11:34:07.265Z,4.82
2022-08-09T11:36:44.235Z,4.38
2022-08-09T11:39:14.685Z,4.20
2022-08-09T11:41:45.909Z,4.57
2022-08-09T11:44:17.467Z,4.33
2022-08-09T11:46:53.645Z,4.43
2022-08-09T11:50:52.601Z,5.13
2022-08-09T11:55:53.968Z,4.90
2022-08-09T11:58:33.147Z,4.80
2022-08-09T12:01:15.570Z,4.70
2022-08-09T12:04:08.593Z,4.53
2022-08-09T12:06:56.230Z,4.70
2022-08-09T12:09:33.647Z,4.72
2022-08-09T12:12:12.921Z,5.10
2022-08-09T12:15:07.697Z,4.93
2022-08-09T12:17:43.260Z,5.18
2022-08-09T12:20:21.801Z,3.90
2022-08-09T12:22:56.315Z,5.03
2022-08-09T12:25:36.841Z,4.88
2022-08-09T12:28:58.117Z,5.18
2022-08-09T12:31:02.900Z,5.20
2022-08-09T12:33:58.482Z,5.00
2022-08-09T12:36:31.692Z,5.03
2022-08-09T12:39:01.725Z,5.00
2022-08-09T12:41:39.050Z,5.07
2022-08-09T12:44:10.204Z,5.00
2022-08-09T12:46:48.899Z,5.65
2022-08-09T12:49:20.970Z,4.82
2022-08-09T12:52:02.850Z,4.78
2022-08-09T12:56:10.917Z,5.03
2022-08-09T12:57:47.044Z,4.93
2022-08-09T13:00:25.583Z,4.80
2022-08-09T13:02:59.676Z,4.70
2022-08-09T13:05:51.565Z,5.13
2022-08-09T13:08:39.627Z,4.72
2022-08-09T13:11:23.384Z,5.00
2022-08-09T13:14:37.162Z,5.70
2022-08-09T13:16:50.371Z,5.10
2022-08-09T13:20:09.414Z,4.85
2022-08-09T13:22:37.764Z,5.00
2022-08-09T13:25:15.550Z,5.15
2022-08-09T13:27:48.574Z,4.47
2022-08-09T13:31:10.942Z,5.20
2022-08-09T13:33:23.765Z,4.60
2022-08-09T13:36:39.758Z,4.32
2022-08-09T13:38:57.738Z,5.10
2022-08-09T13:41:58.793Z,5.10
2022-08-09T13:44:17.055Z,4.88
2022-08-09T13:47:26.851Z,4.80
2022-08-09T13:49:55.867Z,5.35
2022-08-09T13:52:25.873Z,5.47
2022-08-09T13:54:59.314Z,4.65
2022-08-09T13:57:40.478Z,5.43
2022-08-09T14:00:12.338Z,4.93
2022-08-09T14:03:04.297Z,4.85
2022-08-09T14:05:56.513Z,4.93
2022-08-09T14:08:30.583Z,4.20
2022-08-09T14:11:00.618Z,5.70
2022-08-09T14:14:22.003Z,4.85
2022-08-09T14:16:28.644Z,5.03
2022-08-09T14:18:58.383Z,4.43
2022-08-09T14:21:29.618Z,4.90
2022-08-09T14:24:05.516Z,5.32
2022-08-09T14:26:38.883Z,5.18
2022-08-09T14:30:18.745Z,4.90
2022-08-09T14:31:58.947Z,5.28
2022-08-09T14:34:34.288Z,5.32
2022-08-09T14:37:07.918Z,5.13
2022-08-09T14:39:39.922Z,5.45
2022-08-09T14:42:09.311Z,5.50
2022-08-09T14:44:59.595Z,5.10
2022-08-09T14:47:39.970Z,4.97
2022-08-09T14:50:15.962Z,4.88
2022-08-09T14:52:47.826Z,4.75
2022-08-09T14:55:20.404Z,5.32
2022-08-09T14:57:49.749Z,5.43
2022-08-09T15:00:18.561Z,5.22
2022-08-09T15:02:47.614Z,5.32
2022-08-09T15:05:20.551Z,4.78
2022-08-09T15:07:56.377Z,5.43
2022-08-09T15:10:26.507Z,5.10
2022-08-09T15:12:55.785Z,5.03
2022-08-09T15:15:28.326Z,4.78
2022-08-09T15:21:57.379Z,5.43
2022-08-09T15:24:01.743Z,4.90
2022-08-09T15:26:09.046Z,5.53
2022-08-09T15:31:28.640Z,4.93
2022-08-09T15:34:32.371Z,4.95
2022-08-09T15:37:01.189Z,5.15
2022-08-09T15:39:49.909Z,4.70
2022-08-09T15:42:21.989Z,5.10
2022-08-09T15:44:50.869Z,5.18
2022-08-09T15:47:21.763Z,4.90
2022-08-09T15:50:03.616Z,5.07
2022-08-09T15:52:35.211Z,4.80
2022-08-09T15:55:09.291Z,5.25
2022-08-09T15:57:44.213Z,4.53
2022-08-09T16:00:25.136Z,4.68
2022-08-09T16:02:56.096Z,4.30
2022-08-09T16:05:47.619Z,4.68
2022-08-09T16:08:30.095Z,4.88
2022-08-09T16:11:01.563Z,5.20
2022-08-09T16:14:03.348Z,5.10
2022-08-09T16:16:20.190Z,4.80
2022-08-09T16:18:54.532Z,4.65
2022-08-09T16:21:25.692Z,4.53
2022-08-09T16:23:58.257Z,4.22
2022-08-09T16:26:33.749Z,4.50
2022-08-09T16:29:11.833Z,4.00
2022-08-09T16:32:18.669Z,4.47
2022-08-09T16:34:54.666Z,4.45
2022-08-09T16:37:53.533Z,4.38
2022-08-09T16:40:13.283Z,4.22
2022-08-09T16:42:45.276Z,4.20
2022-08-09T16:45:19.633Z,4.40
2022-08-09T16:48:41.276Z,3.85
2022-08-09T16:50:38.471Z,4.57
2022-08-09T16:53:09.052Z,3.53
2022-08-09T16:58:28.110Z,3.67
2022-08-09T17:00:58.219Z,3.42
2022-08-09T17:03:26.412Z,3.03
2022-08-09T17:06:03.450Z,4.00
2022-08-09T17:08:43.946Z,4.28
2022-08-09T17:11:40.449Z,3.60
2022-08-09T17:14:25.995Z,3.80
2022-08-09T17:17:01.155Z,3.53
2022-08-09T17:20:05.109Z,3.65
2022-08-09T17:22:28.814Z,3.75
2022-08-09T17:25:03.753Z,4.07
2022-08-09T17:27:34.426Z,3.60
2022-08-09T17:30:12.828Z,3.80
2022-08-09T17:32:45.551Z,3.92
2022-08-09T17:35:15.173Z,3.60
2022-08-09T17:38:11.541Z,4.05
2022-08-09T17:40:34.968Z,3.85
2022-08-09T17:43:32.362Z,3.70
2022-08-09T17:46:02.740Z,3.65
2022-08-09T17:48:34.657Z,4.20
2022-08-09T17:51:09.619Z,3.50
2022-08-09T17:53:43.048Z,3.67
2022-08-09T17:56:18.439Z,4.00
2022-08-09T17:58:46.912Z,4.00
2022-08-09T18:01:22.236Z,3.75
2022-08-09T18:03:54.595Z,4.35
2022-08-09T18:06:32.080Z,4.00
2022-08-09T18:09:08.433Z,4.43
2022-08-09T18:11:46.914Z,4.43
2022-08-09T18:14:27.590Z,3.90
2022-08-09T18:16:55.841Z,4.10
2022-08-09T18:20:58.202Z,4.10
2022-08-09T18:22:17.037Z,4.00
2022-08-09T18:24:46.888Z,4.43
2022-08-09T18:27:49.387Z,4.15
2022-08-09T18:30:41.837Z,4.43
2022-08-09T18:32:54.689Z,4.47
2022-08-09T18:35:58.858Z,4.60
2022-08-09T18:38:12.631Z,4.30
2022-08-09T18:40:43.148Z,4.40
2022-08-09T18:43:13.257Z,4.15
2022-08-09T18:46:50.003Z,4.78
2022-08-09T18:48:32.938Z,4.75
2022-08-09T18:51:01.889Z,4.07
2022-08-09T18:53:53.046Z,4.50
2022-08-09T18:56:27.177Z,4.57
2022-08-09T18:58:57.611Z,4.45
2022-08-09T19:01:43.236Z,4.10
2022-08-09T19:04:14.586Z,4.30
2022-08-09T19:06:50.594Z,4.60
2022-08-09T19:09:20.575Z,4.72
2022-08-09T19:12:09.234Z,4.55
2022-08-09T19:14:38.645Z,4.40
2022-08-09T19:17:06.871Z,4.22
2022-08-09T19:19:41.556Z,3.90
2022-08-09T19:22:12.004Z,3.95
2022-08-09T19:25:11.897Z,4.10
2022-08-09T19:27:32.745Z,3.80
2022-08-09T19:30:24.927Z,4.38
2022-08-09T19:32:53.518Z,4.72
2022-08-09T19:35:26.406Z,4.78
2022-08-09T19:37:58.120Z,4.65
2022-08-09T19:40:34.286Z,4.30
2022-08-09T19:43:16.344Z,4.25
2022-08-09T19:45:57.787Z,5.07
2022-08-09T19:49:00.458Z,4.75
2022-08-09T19:51:14.351Z,4.20
2022-08-09T19:53:47.860Z,4.38
2022-08-09T19:56:16.440Z,4.00
2022-08-09T19:59:39.258Z,4.05
2022-08-09T20:01:52.324Z,4.75
2022-08-09T20:04:40.386Z,4.40
2022-08-09T20:07:20.915Z,5.13
2022-08-09T20:09:49.931Z,4.82
2022-08-09T20:12:29.813Z,4.65
2022-08-09T20:15:00.047Z,4.45
2022-08-09T20:17:41.348Z,4.60
2022-08-09T20:20:16.419Z,4.53
2022-08-09T20:22:46.475Z,4.95
2022-08-09T20:25:22.491Z,4.63
2022-08-09T20:27:51.186Z,4.53
2022-08-09T20:30:23.668Z,4.95
2022-08-09T20:32:52.889Z,4.50
2022-08-09T20:35:24.413Z,4.60
2022-08-09T20:38:23.423Z,4.80
2022-08-09T20:40:41.134Z,4.32
2022-08-09T20:43:19.123Z,4.07
2022-08-09T20:46:01.158Z,4.18
2022-08-09T20:48:42.596Z,4.60
2022-08-09T20:51:19.208Z,5.38
2022-08-09T20:53:48.872Z,4.70
2022-08-09T20:56:21.851Z,5.15
2022-08-09T20:58:58.957Z,4.65
2022-08-09T21:01:34.817Z,4.40
2022-08-09T21:05:55.006Z,4.47
2022-08-09T21:07:11.834Z,4.30
2022-08-09T21:09:56.951Z,4.55
2022-08-09T21:15:23.420Z,4.05
2022-08-09T21:18:23.028Z,4.45
2022-08-09T21:20:43.967Z,4.20
2022-08-09T21:23:22.431Z,4.13
2022-08-09T21:26:10.688Z,5.22
2022-08-09T21:28:39.690Z,4.13
2022-08-09T21:31:24.023Z,4.53
2022-08-09T21:34:12.491Z,4.65
2022-08-09T21:36:55.205Z,4.55
2022-08-09T21:42:06.101Z,4.47
2022-08-09T21:44:40.123Z,4.80
2022-08-09T21:47:17.504Z,4.72
2022-08-09T21:49:48.127Z,4.95
2022-08-09T21:52:20.329Z,4.68
2022-08-09T21:55:02.893Z,4.40
2022-08-09T21:57:38.278Z,5.28
2022-08-09T22:00:25.224Z,5.32
2022-08-09T22:02:59.634Z,4.90
2022-08-09T22:08:12.930Z,4.55
2022-08-09T22:11:01.092Z,4.47
2022-08-09T22:13:35.541Z,4.90
2022-08-09T22:16:08.506Z,4.40
2022-08-09T22:21:45.086Z,4.35
2022-08-09T22:24:21.144Z,4.20
2022-08-09T22:26:54.356Z,4.43
2022-08-09T22:29:28.761Z,4.32
2022-08-09T22:32:02.728Z,4.13
2022-08-09T22:34:30.929Z,4.15
2022-08-09T22:37:01.874Z,4.15
2022-08-09T22:39:56.275Z,4.75
2022-08-09T22:42:23.502Z,4.30
2022-08-09T22:45:02.452Z,4.72
2022-08-09T22:48:11.601Z,4.65
2022-08-09T22:50:32.627Z,4.72
2022-08-09T22:53:03.966Z,4.18
2022-08-09T22:56:06.689Z,4.38
2022-08-09T22:58:32.371Z,4.97
2022-08-09T23:01:08.527Z,6.22
2022-08-09T23:04:03.956Z,4.53
2022-08-09T23:06:34.891Z,4.68
2022-08-09T23:09:07.424Z,5.38
2022-08-09T23:11:36.012Z,5.35
2022-08-09T23:14:10.266Z,4.45
2022-08-09T23:16:45.672Z,5.13
2022-08-09T23:19:14.197Z,5.10
2022-08-09T23:21:42.675Z,3.55
2022-08-09T23:24:11.189Z,3.75
2022-08-09T23:26:40.439Z,4.00
2022-08-09T23:29:13.738Z,3.80
2022-08-09T23:31:42.435Z,4.20
2022-08-09T23:34:10.880Z,3.65
2022-08-09T23:36:39.154Z,4.03
2022-08-09T23:39:08.214Z,3.90
2022-08-09T23:41:36.490Z,3.80
2022-08-09T23:44:05.572Z,3.70
2022-08-09T23:46:34.089Z,3.17
2022-08-09T23:49:03.110Z,3.10
2022-08-09T23:51:31.395Z,3.05
2022-08-09T23:54:03.415Z,3.00
2022-08-09T23:56:52.142Z,3.40
2022-08-09T23:59:22.621Z,3.47
